sensor_id;sensor_type;location;lat;lon;timestamp;P1;durP1;ratioP1;P2;durP2;ratioP2
14001;SDS011;7076;51.280;12.584;2024-01-11T00:00:07;20.23;;;11.20;;
14001;SDS011;7076;51.280;12.584;2024-01-11T00:05:10;23.97;;;12.33;;
14001;SDS011;7076;51.280;12.584;2024-01-11T00:10:13;22.77;;;11.33;;
14001;SDS011;7076;51.280;12.584;2024-01-11T00:15:17;21.07;;;11.60;;
14001;SDS011;7076;51.280;12.584;2024-01-11T00:20:20;21.10;;;11.00;;
14001;SDS011;7076;51.280;12.584;2024-01-11T00:25:23;22.93;;;12.33;;
14001;SDS011;7076;51.280;12.584;2024-01-11T00:30:27;27.67;;;11.90;;
14001;SDS011;7076;51.280;12.584;2024-01-11T00:35:30;29.77;;;12.43;;
14001;SDS011;7076;51.280;12.584;2024-01-11T00:40:33;28.73;;;12.33;;
14001;SDS011;7076;51.280;12.584;2024-01-11T00:45:37;18.53;;;9.47;;
14001;SDS011;7076;51.280;12.584;2024-01-11T00:50:40;29.53;;;14.30;;
14001;SDS011;7076;51.280;12.584;2024-01-11T00:55:43;25.13;;;10.80;;
14001;SDS011;7076;51.280;12.584;2024-01-11T01:00:48;23.97;;;12.60;;
14001;SDS011;7076;51.280;12.584;2024-01-11T01:05:51;21.90;;;10.67;;
14001;SDS011;7076;51.280;12.584;2024-01-11T01:10:54;22.47;;;12.70;;
14001;SDS011;7076;51.280;12.584;2024-01-11T01:15:58;32.83;;;12.73;;
14001;SDS011;7076;51.280;12.584;2024-01-11T01:21:01;21.70;;;10.80;;
14001;SDS011;7076;51.280;12.584;2024-01-11T01:26:04;21.93;;;10.80;;
14001;SDS011;7076;51.280;12.584;2024-01-11T01:31:09;21.90;;;12.67;;
14001;SDS011;7076;51.280;12.584;2024-01-11T01:36:12;22.73;;;12.80;;
14001;SDS011;7076;51.280;12.584;2024-01-11T01:41:15;28.07;;;13.47;;
14001;SDS011;7076;51.280;12.584;2024-01-11T01:46:22;23.87;;;14.67;;
14001;SDS011;7076;51.280;12.584;2024-01-11T01:51:26;29.97;;;13.27;;
14001;SDS011;7076;51.280;12.584;2024-01-11T01:56:29;26.37;;;13.70;;
14001;SDS011;7076;51.280;12.584;2024-01-11T02:01:34;27.27;;;12.70;;
14001;SDS011;7076;51.280;12.584;2024-01-11T02:06:37;23.93;;;12.50;;
14001;SDS011;7076;51.280;12.584;2024-01-11T02:11:40;22.67;;;11.23;;
14001;SDS011;7076;51.280;12.584;2024-01-11T02:16:45;28.17;;;12.30;;
14001;SDS011;7076;51.280;12.584;2024-01-11T02:21:48;23.23;;;11.80;;
14001;SDS011;7076;51.280;12.584;2024-01-11T02:27:00;18.23;;;10.60;;
14001;SDS011;7076;51.280;12.584;2024-01-11T02:32:03;20.80;;;11.17;;
14001;SDS011;7076;51.280;12.584;2024-01-11T02:37:08;26.50;;;11.97;;
14001;SDS011;7076;51.280;12.584;2024-01-11T02:42:13;29.50;;;14.80;;
14001;SDS011;7076;51.280;12.584;2024-01-11T02:47:17;20.67;;;12.20;;
14001;SDS011;7076;51.280;12.584;2024-01-11T02:52:19;19.67;;;10.10;;
14001;SDS011;7076;51.280;12.584;2024-01-11T02:57:24;25.67;;;13.53;;
14001;SDS011;7076;51.280;12.584;2024-01-11T03:02:26;20.90;;;11.67;;
14001;SDS011;7076;51.280;12.584;2024-01-11T03:07:29;19.87;;;10.90;;
14001;SDS011;7076;51.280;12.584;2024-01-11T03:12:35;24.23;;;11.93;;
14001;SDS011;7076;51.280;12.584;2024-01-11T03:17:37;27.67;;;11.90;;
14001;SDS011;7076;51.280;12.584;2024-01-11T03:22:44;21.70;;;13.33;;
14001;SDS011;7076;51.280;12.584;2024-01-11T03:27:49;19.87;;;10.97;;
14001;SDS011;7076;51.280;12.584;2024-01-11T03:32:52;17.93;;;9.43;;
14001;SDS011;7076;51.280;12.584;2024-01-11T03:37:55;27.63;;;10.03;;
14001;SDS011;7076;51.280;12.584;2024-01-11T03:43:02;22.23;;;9.90;;
14001;SDS011;7076;51.280;12.584;2024-01-11T03:48:06;36.73;;;12.30;;
14001;SDS011;7076;51.280;12.584;2024-01-11T03:53:09;24.37;;;11.30;;
14001;SDS011;7076;51.280;12.584;2024-01-11T03:58:13;19.77;;;10.40;;
14001;SDS011;7076;51.280;12.584;2024-01-11T04:03:16;19.43;;;11.80;;
14001;SDS011;7076;51.280;12.584;2024-01-11T04:08:18;21.57;;;11.30;;
14001;SDS011;7076;51.280;12.584;2024-01-11T04:13:23;23.17;;;10.87;;
14001;SDS011;7076;51.280;12.584;2024-01-11T04:18:26;21.00;;;11.50;;
14001;SDS011;7076;51.280;12.584;2024-01-11T04:23:29;21.40;;;12.37;;
14001;SDS011;7076;51.280;12.584;2024-01-11T04:28:33;18.97;;;9.80;;
14001;SDS011;7076;51.280;12.584;2024-01-11T04:33:39;20.63;;;9.47;;
14001;SDS011;7076;51.280;12.584;2024-01-11T04:38:42;18.00;;;10.20;;
14001;SDS011;7076;51.280;12.584;2024-01-11T04:43:50;21.83;;;10.93;;
14001;SDS011;7076;51.280;12.584;2024-01-11T04:48:53;19.97;;;11.47;;
14001;SDS011;7076;51.280;12.584;2024-01-11T04:53:56;15.70;;;8.90;;
14001;SDS011;7076;51.280;12.584;2024-01-11T04:59:00;22.80;;;10.10;;
14001;SDS011;7076;51.280;12.584;2024-01-11T05:04:03;33.73;;;10.40;;
14001;SDS011;7076;51.280;12.584;2024-01-11T05:09:06;21.93;;;11.63;;
14001;SDS011;7076;51.280;12.584;2024-01-11T05:14:15;19.57;;;10.43;;
14001;SDS011;7076;51.280;12.584;2024-01-11T05:19:18;16.37;;;9.20;;
14001;SDS011;7076;51.280;12.584;2024-01-11T05:24:21;24.17;;;11.73;;
14001;SDS011;7076;51.280;12.584;2024-01-11T05:29:25;23.40;;;10.13;;
14001;SDS011;7076;51.280;12.584;2024-01-11T05:34:28;21.67;;;10.63;;
14001;SDS011;7076;51.280;12.584;2024-01-11T05:39:31;24.07;;;10.90;;
14001;SDS011;7076;51.280;12.584;2024-01-11T05:44:35;24.73;;;11.87;;
14001;SDS011;7076;51.280;12.584;2024-01-11T05:49:38;16.77;;;9.97;;
14001;SDS011;7076;51.280;12.584;2024-01-11T05:54:42;23.50;;;10.93;;
14001;SDS011;7076;51.280;12.584;2024-01-11T05:59:48;17.10;;;9.67;;
14001;SDS011;7076;51.280;12.584;2024-01-11T06:04:51;23.53;;;9.83;;
14001;SDS011;7076;51.280;12.584;2024-01-11T06:09:54;22.97;;;12.47;;
14001;SDS011;7076;51.280;12.584;2024-01-11T06:14:58;24.80;;;11.37;;
14001;SDS011;7076;51.280;12.584;2024-01-11T06:20:01;24.67;;;11.93;;
14001;SDS011;7076;51.280;12.584;2024-01-11T06:25:05;21.70;;;12.30;;
14001;SDS011;7076;51.280;12.584;2024-01-11T06:30:10;21.50;;;11.57;;
14001;SDS011;7076;51.280;12.584;2024-01-11T06:35:13;21.93;;;11.00;;
14001;SDS011;7076;51.280;12.584;2024-01-11T06:40:16;25.10;;;11.57;;
14001;SDS011;7076;51.280;12.584;2024-01-11T06:45:22;24.90;;;11.93;;
14001;SDS011;7076;51.280;12.584;2024-01-11T06:50:25;22.03;;;10.50;;
14001;SDS011;7076;51.280;12.584;2024-01-11T06:55:27;20.10;;;9.67;;
14001;SDS011;7076;51.280;12.584;2024-01-11T07:00:32;19.47;;;9.77;;
14001;SDS011;7076;51.280;12.584;2024-01-11T07:05:34;24.03;;;12.53;;
14001;SDS011;7076;51.280;12.584;2024-01-11T07:10:38;29.07;;;10.90;;
14001;SDS011;7076;51.280;12.584;2024-01-11T07:15:42;22.00;;;11.83;;
14001;SDS011;7076;51.280;12.584;2024-01-11T07:20:45;19.07;;;10.23;;
14001;SDS011;7076;51.280;12.584;2024-01-11T07:25:49;27.50;;;13.03;;
14001;SDS011;7076;51.280;12.584;2024-01-11T07:30:54;22.03;;;11.43;;
14001;SDS011;7076;51.280;12.584;2024-01-11T07:35:57;24.77;;;12.67;;
14001;SDS011;7076;51.280;12.584;2024-01-11T07:41:00;29.17;;;10.67;;
14001;SDS011;7076;51.280;12.584;2024-01-11T07:46:04;28.00;;;11.70;;
14001;SDS011;7076;51.280;12.584;2024-01-11T07:51:09;19.37;;;11.50;;
14001;SDS011;7076;51.280;12.584;2024-01-11T07:56:12;30.50;;;12.33;;
14001;SDS011;7076;51.280;12.584;2024-01-11T08:01:16;37.53;;;12.83;;
14001;SDS011;7076;51.280;12.584;2024-01-11T08:06:19;31.30;;;12.83;;
14001;SDS011;7076;51.280;12.584;2024-01-11T08:11:22;31.00;;;13.93;;
14001;SDS011;7076;51.280;12.584;2024-01-11T08:16:28;29.87;;;12.33;;
14001;SDS011;7076;51.280;12.584;2024-01-11T08:21:31;25.80;;;12.73;;
14001;SDS011;7076;51.280;12.584;2024-01-11T08:26:34;32.27;;;14.23;;
14001;SDS011;7076;51.280;12.584;2024-01-11T08:31:38;22.13;;;13.10;;
14001;SDS011;7076;51.280;12.584;2024-01-11T08:36:41;35.33;;;15.73;;
14001;SDS011;7076;51.280;12.584;2024-01-11T08:41:44;33.87;;;16.87;;
14001;SDS011;7076;51.280;12.584;2024-01-11T08:46:52;29.40;;;14.07;;
14001;SDS011;7076;51.280;12.584;2024-01-11T08:51:55;32.33;;;16.80;;
14001;SDS011;7076;51.280;12.584;2024-01-11T08:56:58;32.80;;;14.90;;
14001;SDS011;7076;51.280;12.584;2024-01-11T09:02:02;25.40;;;15.07;;
14001;SDS011;7076;51.280;12.584;2024-01-11T09:07:17;29.27;;;15.10;;
14001;SDS011;7076;51.280;12.584;2024-01-11T09:12:20;29.37;;;15.90;;
14001;SDS011;7076;51.280;12.584;2024-01-11T09:17:24;30.80;;;14.10;;
14001;SDS011;7076;51.280;12.584;2024-01-11T09:22:27;31.20;;;15.87;;
14001;SDS011;7076;51.280;12.584;2024-01-11T09:27:30;29.93;;;14.20;;
14001;SDS011;7076;51.280;12.584;2024-01-11T09:32:34;37.43;;;17.00;;
14001;SDS011;7076;51.280;12.584;2024-01-11T09:37:37;41.33;;;16.93;;
14001;SDS011;7076;51.280;12.584;2024-01-11T09:42:44;28.90;;;13.83;;
14001;SDS011;7076;51.280;12.584;2024-01-11T09:47:48;32.37;;;15.20;;
14001;SDS011;7076;51.280;12.584;2024-01-11T09:52:52;45.00;;;16.53;;
14001;SDS011;7076;51.280;12.584;2024-01-11T09:57:56;30.80;;;15.27;;
14001;SDS011;7076;51.280;12.584;2024-01-11T10:03:00;34.47;;;16.17;;
14001;SDS011;7076;51.280;12.584;2024-01-11T10:08:04;31.73;;;15.67;;
14001;SDS011;7076;51.280;12.584;2024-01-11T10:13:08;35.77;;;18.17;;
14001;SDS011;7076;51.280;12.584;2024-01-11T10:18:13;30.43;;;15.13;;
14001;SDS011;7076;51.280;12.584;2024-01-11T10:23:16;28.50;;;14.77;;
14001;SDS011;7076;51.280;12.584;2024-01-11T10:28:19;34.23;;;15.40;;
14001;SDS011;7076;51.280;12.584;2024-01-11T10:33:24;34.77;;;16.73;;
14001;SDS011;7076;51.280;12.584;2024-01-11T10:38:27;42.93;;;19.27;;
14001;SDS011;7076;51.280;12.584;2024-01-11T10:43:32;37.83;;;16.73;;
14001;SDS011;7076;51.280;12.584;2024-01-11T10:48:41;45.70;;;19.40;;
14001;SDS011;7076;51.280;12.584;2024-01-11T10:53:46;34.50;;;16.07;;
14001;SDS011;7076;51.280;12.584;2024-01-11T10:58:50;42.27;;;20.20;;
14001;SDS011;7076;51.280;12.584;2024-01-11T11:03:55;40.50;;;19.97;;
14001;SDS011;7076;51.280;12.584;2024-01-11T11:08:58;42.97;;;18.90;;
14001;SDS011;7076;51.280;12.584;2024-01-11T11:14:01;41.00;;;19.00;;
14001;SDS011;7076;51.280;12.584;2024-01-11T11:19:05;35.90;;;19.37;;
14001;SDS011;7076;51.280;12.584;2024-01-11T11:24:09;43.83;;;20.23;;
14001;SDS011;7076;51.280;12.584;2024-01-11T11:29:12;41.47;;;18.47;;
14001;SDS011;7076;51.280;12.584;2024-01-11T11:34:19;45.00;;;19.87;;
14001;SDS011;7076;51.280;12.584;2024-01-11T11:39:23;38.20;;;20.20;;
14001;SDS011;7076;51.280;12.584;2024-01-11T11:44:26;40.97;;;20.77;;
14001;SDS011;7076;51.280;12.584;2024-01-11T11:54:59;37.60;;;17.37;;
14001;SDS011;7076;51.280;12.584;2024-01-11T12:00:03;42.30;;;20.57;;
14001;SDS011;7076;51.280;12.584;2024-01-11T12:05:16;42.00;;;18.87;;
14001;SDS011;7076;51.280;12.584;2024-01-11T12:10:20;36.83;;;18.63;;
14001;SDS011;7076;51.280;12.584;2024-01-11T12:15:26;38.07;;;17.63;;
14001;SDS011;7076;51.280;12.584;2024-01-11T12:20:31;42.13;;;18.10;;
14001;SDS011;7076;51.280;12.584;2024-01-11T12:25:34;36.83;;;18.10;;
14001;SDS011;7076;51.280;12.584;2024-01-11T12:30:37;32.77;;;16.73;;
14001;SDS011;7076;51.280;12.584;2024-01-11T12:35:42;32.83;;;15.77;;
14001;SDS011;7076;51.280;12.584;2024-01-11T12:40:45;30.17;;;14.90;;
14001;SDS011;7076;51.280;12.584;2024-01-11T12:45:48;33.63;;;16.00;;
14001;SDS011;7076;51.280;12.584;2024-01-11T12:50:52;32.00;;;17.10;;
14001;SDS011;7076;51.280;12.584;2024-01-11T12:56:15;30.60;;;14.50;;
14001;SDS011;7076;51.280;12.584;2024-01-11T13:01:18;28.30;;;12.90;;
14001;SDS011;7076;51.280;12.584;2024-01-11T13:06:22;37.00;;;15.80;;
14001;SDS011;7076;51.280;12.584;2024-01-11T13:11:26;34.67;;;16.00;;
14001;SDS011;7076;51.280;12.584;2024-01-11T13:16:29;31.03;;;14.97;;
14001;SDS011;7076;51.280;12.584;2024-01-11T13:21:33;30.67;;;15.50;;
14001;SDS011;7076;51.280;12.584;2024-01-11T13:26:36;31.50;;;14.13;;
14001;SDS011;7076;51.280;12.584;2024-01-11T13:31:39;33.03;;;14.47;;
14001;SDS011;7076;51.280;12.584;2024-01-11T13:36:44;34.40;;;16.47;;
14001;SDS011;7076;51.280;12.584;2024-01-11T13:41:47;32.50;;;14.57;;
14001;SDS011;7076;51.280;12.584;2024-01-11T13:46:50;29.80;;;15.37;;
14001;SDS011;7076;51.280;12.584;2024-01-11T13:51:54;37.57;;;15.70;;
14001;SDS011;7076;51.280;12.584;2024-01-11T13:57:02;26.30;;;14.00;;
14001;SDS011;7076;51.280;12.584;2024-01-11T14:02:05;31.00;;;13.87;;
14001;SDS011;7076;51.280;12.584;2024-01-11T14:07:09;30.97;;;15.20;;
14001;SDS011;7076;51.280;12.584;2024-01-11T14:12:12;33.13;;;15.50;;
14001;SDS011;7076;51.280;12.584;2024-01-11T14:17:17;27.67;;;14.43;;
14001;SDS011;7076;51.280;12.584;2024-01-11T14:22:21;25.20;;;13.33;;
14001;SDS011;7076;51.280;12.584;2024-01-11T14:27:27;35.07;;;16.93;;
14001;SDS011;7076;51.280;12.584;2024-01-11T14:32:34;35.63;;;16.17;;
14001;SDS011;7076;51.280;12.584;2024-01-11T14:37:40;32.93;;;15.43;;
14001;SDS011;7076;51.280;12.584;2024-01-11T14:42:44;29.47;;;15.13;;
14001;SDS011;7076;51.280;12.584;2024-01-11T14:47:47;28.70;;;14.23;;
14001;SDS011;7076;51.280;12.584;2024-01-11T14:52:52;27.03;;;13.13;;
14001;SDS011;7076;51.280;12.584;2024-01-11T14:57:58;20.77;;;9.00;;
14001;SDS011;7076;51.280;12.584;2024-01-11T15:03:02;17.53;;;9.73;;
14001;SDS011;7076;51.280;12.584;2024-01-11T15:08:08;16.93;;;9.60;;
14001;SDS011;7076;51.280;12.584;2024-01-11T15:13:11;17.73;;;9.73;;
14001;SDS011;7076;51.280;12.584;2024-01-11T15:18:14;13.37;;;6.83;;
14001;SDS011;7076;51.280;12.584;2024-01-11T15:23:18;15.97;;;7.60;;
14001;SDS011;7076;51.280;12.584;2024-01-11T15:28:21;15.23;;;7.83;;
14001;SDS011;7076;51.280;12.584;2024-01-11T15:33:24;14.70;;;7.27;;
14001;SDS011;7076;51.280;12.584;2024-01-11T15:38:28;13.10;;;8.17;;
14001;SDS011;7076;51.280;12.584;2024-01-11T15:43:31;15.23;;;8.07;;
14001;SDS011;7076;51.280;12.584;2024-01-11T15:48:34;13.50;;;7.47;;
14001;SDS011;7076;51.280;12.584;2024-01-11T15:53:38;15.73;;;7.43;;
14001;SDS011;7076;51.280;12.584;2024-01-11T15:58:42;14.27;;;6.93;;
14001;SDS011;7076;51.280;12.584;2024-01-11T16:03:45;11.97;;;6.13;;
14001;SDS011;7076;51.280;12.584;2024-01-11T16:08:50;14.73;;;6.43;;
14001;SDS011;7076;51.280;12.584;2024-01-11T16:13:53;13.80;;;6.23;;
14001;SDS011;7076;51.280;12.584;2024-01-11T16:18:56;15.30;;;7.80;;
14001;SDS011;7076;51.280;12.584;2024-01-11T16:24:02;13.87;;;6.90;;
14001;SDS011;7076;51.280;12.584;2024-01-11T16:29:05;15.13;;;7.93;;
14001;SDS011;7076;51.280;12.584;2024-01-11T16:34:08;13.20;;;6.10;;
14001;SDS011;7076;51.280;12.584;2024-01-11T16:39:14;13.07;;;5.83;;
14001;SDS011;7076;51.280;12.584;2024-01-11T16:44:17;10.67;;;5.33;;
14001;SDS011;7076;51.280;12.584;2024-01-11T16:49:20;8.93;;;4.73;;
14001;SDS011;7076;51.280;12.584;2024-01-11T16:54:26;14.03;;;6.00;;
14001;SDS011;7076;51.280;12.584;2024-01-11T16:59:29;14.03;;;6.77;;
14001;SDS011;7076;51.280;12.584;2024-01-11T17:04:32;10.23;;;5.23;;
14001;SDS011;7076;51.280;12.584;2024-01-11T17:09:36;9.87;;;4.57;;
14001;SDS011;7076;51.280;12.584;2024-01-11T17:14:40;9.30;;;4.93;;
14001;SDS011;7076;51.280;12.584;2024-01-11T17:19:44;10.27;;;5.30;;
14001;SDS011;7076;51.280;12.584;2024-01-11T17:24:48;8.73;;;4.63;;
14001;SDS011;7076;51.280;12.584;2024-01-11T17:29:51;10.90;;;5.50;;
14001;SDS011;7076;51.280;12.584;2024-01-11T17:34:54;10.53;;;5.20;;
14001;SDS011;7076;51.280;12.584;2024-01-11T17:39:59;9.00;;;4.47;;
14001;SDS011;7076;51.280;12.584;2024-01-11T17:45:02;11.43;;;5.40;;
14001;SDS011;7076;51.280;12.584;2024-01-11T17:50:05;8.90;;;4.50;;
14001;SDS011;7076;51.280;12.584;2024-01-11T17:55:10;12.07;;;4.83;;
14001;SDS011;7076;51.280;12.584;2024-01-11T18:00:14;8.97;;;4.63;;
14001;SDS011;7076;51.280;12.584;2024-01-11T18:05:17;22.07;;;10.23;;
14001;SDS011;7076;51.280;12.584;2024-01-11T18:10:22;9.93;;;5.30;;
14001;SDS011;7076;51.280;12.584;2024-01-11T18:15:25;8.03;;;4.80;;
14001;SDS011;7076;51.280;12.584;2024-01-11T18:20:28;10.90;;;4.77;;
14001;SDS011;7076;51.280;12.584;2024-01-11T18:25:32;12.43;;;5.77;;
14001;SDS011;7076;51.280;12.584;2024-01-11T18:30:35;9.87;;;4.63;;
14001;SDS011;7076;51.280;12.584;2024-01-11T18:35:39;11.53;;;5.63;;
14001;SDS011;7076;51.280;12.584;2024-01-11T18:40:43;9.73;;;5.27;;
14001;SDS011;7076;51.280;12.584;2024-01-11T18:45:47;10.00;;;4.77;;
14001;SDS011;7076;51.280;12.584;2024-01-11T18:50:52;10.90;;;5.53;;
14001;SDS011;7076;51.280;12.584;2024-01-11T18:55:57;12.23;;;5.80;;
14001;SDS011;7076;51.280;12.584;2024-01-11T19:01:00;12.73;;;5.70;;
14001;SDS011;7076;51.280;12.584;2024-01-11T19:06:09;14.37;;;6.27;;
14001;SDS011;7076;51.280;12.584;2024-01-11T19:11:14;10.10;;;5.27;;
14001;SDS011;7076;51.280;12.584;2024-01-11T19:16:19;11.17;;;6.10;;
14001;SDS011;7076;51.280;12.584;2024-01-11T19:21:22;10.80;;;5.43;;
14001;SDS011;7076;51.280;12.584;2024-01-11T19:26:26;11.97;;;5.97;;
14001;SDS011;7076;51.280;12.584;2024-01-11T19:31:29;10.30;;;5.20;;
14001;SDS011;7076;51.280;12.584;2024-01-11T19:36:36;9.83;;;4.90;;
14001;SDS011;7076;51.280;12.584;2024-01-11T19:41:41;10.30;;;4.53;;
14001;SDS011;7076;51.280;12.584;2024-01-11T19:46:44;14.50;;;6.33;;
14001;SDS011;7076;51.280;12.584;2024-01-11T19:51:47;13.97;;;6.23;;
14001;SDS011;7076;51.280;12.584;2024-01-11T19:56:51;9.13;;;4.87;;
14001;SDS011;7076;51.280;12.584;2024-01-11T20:01:54;14.03;;;5.90;;
14001;SDS011;7076;51.280;12.584;2024-01-11T20:06:58;12.67;;;5.73;;
14001;SDS011;7076;51.280;12.584;2024-01-11T20:12:03;9.50;;;5.07;;
14001;SDS011;7076;51.280;12.584;2024-01-11T20:17:06;10.03;;;4.57;;
14001;SDS011;7076;51.280;12.584;2024-01-11T20:22:09;10.27;;;4.80;;
14001;SDS011;7076;51.280;12.584;2024-01-11T20:27:14;7.97;;;4.87;;
14001;SDS011;7076;51.280;12.584;2024-01-11T20:32:17;17.87;;;7.10;;
14001;SDS011;7076;51.280;12.584;2024-01-11T20:37:20;18.33;;;9.73;;
14001;SDS011;7076;51.280;12.584;2024-01-11T20:42:24;19.77;;;8.63;;
14001;SDS011;7076;51.280;12.584;2024-01-11T20:47:28;15.53;;;7.13;;
14001;SDS011;7076;51.280;12.584;2024-01-11T20:52:31;10.37;;;4.87;;
14001;SDS011;7076;51.280;12.584;2024-01-11T20:57:35;9.23;;;4.37;;
14001;SDS011;7076;51.280;12.584;2024-01-11T21:02:38;7.47;;;4.60;;
14001;SDS011;7076;51.280;12.584;2024-01-11T21:07:41;8.67;;;4.83;;
14001;SDS011;7076;51.280;12.584;2024-01-11T21:12:45;8.37;;;4.10;;
14001;SDS011;7076;51.280;12.584;2024-01-11T21:17:49;9.10;;;4.97;;
14001;SDS011;7076;51.280;12.584;2024-01-11T21:22:52;7.37;;;4.30;;
14001;SDS011;7076;51.280;12.584;2024-01-11T21:27:57;8.27;;;5.03;;
14001;SDS011;7076;51.280;12.584;2024-01-11T21:33:00;8.67;;;4.37;;
14001;SDS011;7076;51.280;12.584;2024-01-11T21:38:04;8.07;;;5.07;;
14001;SDS011;7076;51.280;12.584;2024-01-11T21:43:08;8.50;;;4.07;;
14001;SDS011;7076;51.280;12.584;2024-01-11T21:48:11;9.93;;;4.73;;
14001;SDS011;7076;51.280;12.584;2024-01-11T21:53:14;9.77;;;4.63;;
14001;SDS011;7076;51.280;12.584;2024-01-11T21:58:18;9.23;;;4.50;;
14001;SDS011;7076;51.280;12.584;2024-01-11T22:03:21;10.03;;;5.07;;
14001;SDS011;7076;51.280;12.584;2024-01-11T22:08:25;7.37;;;4.17;;
14001;SDS011;7076;51.280;12.584;2024-01-11T22:13:29;8.40;;;5.43;;
14001;SDS011;7076;51.280;12.584;2024-01-11T22:18:32;7.67;;;4.17;;
14001;SDS011;7076;51.280;12.584;2024-01-11T22:23:36;10.77;;;5.03;;
14001;SDS011;7076;51.280;12.584;2024-01-11T22:28:40;11.40;;;5.37;;
14001;SDS011;7076;51.280;12.584;2024-01-11T22:33:43;10.67;;;5.20;;
14001;SDS011;7076;51.280;12.584;2024-01-11T22:38:46;9.67;;;5.23;;
14001;SDS011;7076;51.280;12.584;2024-01-11T22:43:51;10.77;;;5.47;;
14001;SDS011;7076;51.280;12.584;2024-01-11T22:48:54;9.60;;;5.83;;
14001;SDS011;7076;51.280;12.584;2024-01-11T22:53:57;8.73;;;4.33;;
14001;SDS011;7076;51.280;12.584;2024-01-11T22:59:02;9.33;;;5.30;;
14001;SDS011;7076;51.280;12.584;2024-01-11T23:04:06;15.53;;;6.10;;
14001;SDS011;7076;51.280;12.584;2024-01-11T23:09:09;15.20;;;7.60;;
14001;SDS011;7076;51.280;12.584;2024-01-11T23:14:14;12.70;;;5.83;;
14001;SDS011;7076;51.280;12.584;2024-01-11T23:19:19;11.93;;;5.57;;
14001;SDS011;7076;51.280;12.584;2024-01-11T23:24:22;11.27;;;5.27;;
14001;SDS011;7076;51.280;12.584;2024-01-11T23:29:27;9.90;;;5.23;;
14001;SDS011;7076;51.280;12.584;2024-01-11T23:34:30;9.57;;;5.47;;
14001;SDS011;7076;51.280;12.584;2024-01-11T23:39:32;9.17;;;5.00;;
14001;SDS011;7076;51.280;12.584;2024-01-11T23:44:37;9.87;;;5.07;;
14001;SDS011;7076;51.280;12.584;2024-01-11T23:49:40;10.37;;;5.53;;
14001;SDS011;7076;51.280;12.584;2024-01-11T23:54:43;11.13;;;5.30;;
14001;SDS011;7076;51.280;12.584;2024-01-11T23:59:47;10.27;;;5.20;;
